Hamnavoe — VSTY7 — position and weather

sailwx.info

Track history (hours):
 
Tides and Currents Weather Stations Pressure Air Temp Water Temp Dewpoint Dewpoint Depression Visibility Wind Speed Wind Dir Waves Ship Positions

Hamnavoe

Operator: NorthLink Orkey & Shetland Ferries Ltd

Last reported at 2017-Mar-26 12:34 UTC. Time now 2017-Mar-26 13:10 UTC.
Position N 58°58' W 003°18'.

Length 112 m; draft 4.2 m.

Type: Ship. MMSI: 235449000.

Date/timePositionNaut miles runAvg speedWind from/ knotsBaromVisibWave heightAir tempDewpointWater temp
2017-Mar-26 12:34N 58°58' W 003°18'1010.5
2017-Mar-26 11:34N 58°49' W 003°29'1312.5
2017-Mar-26 10:33N 58°37' W 003°32'0 0.0
2017-Mar-26 09:33N 58°37' W 003°32'1515.1
2017-Mar-26 08:33N 58°52' W 003°28'8 7.9
2017-Mar-26 07:31N 58°58' W 003°18'0 0.0
2017-Mar-26 06:31N 58°58' W 003°18'0 0.0
2017-Mar-26 05:31N 58°58' W 003°18'0 0.0
2017-Mar-26 04:31N 58°58' W 003°18'0 0.0
2017-Mar-26 03:31N 58°58' W 003°18'0 0.0
2017-Mar-26 02:31N 58°58' W 003°18'0 0.0
2017-Mar-26 01:25N 58°58' W 003°18'0 0.0
2017-Mar-26 00:25N 58°58' W 003°18'0 0.0
2017-Mar-25 23:31N 58°58' W 003°18'0 0.0
2017-Mar-25 22:31N 58°58' W 003°18'0 0.0
2017-Mar-25 21:31N 58°58' W 003°18'0 0.0
2017-Mar-25 20:33N 58°58' W 003°18'1110.9
2017-Mar-25 19:33N 58°49' W 003°29'1211.9
2017-Mar-25 18:33N 58°37' W 003°32'1110.7
2017-Mar-25 17:33N 58°47' W 003°29'1212.2
2017-Mar-25 16:33N 58°58' W 003°18'0 0.0
2017-Mar-25 15:29N 58°58' W 003°18'0 0.0
2017-Mar-25 14:29N 58°58' W 003°18'0 0.0
2017-Mar-25 13:33N 58°58' W 003°18'1111.5
2017-Mar-25 12:33N 58°48' W 003°29'12 9.5
2017-Mar-25 11:20N 58°37' W 003°32'0 0.0
2017-Mar-25 10:33N 58°37' W 003°32'1615.8
2017-Mar-25 09:33N 58°52' W 003°28'8 7.5
2017-Mar-25 08:31N 58°58' W 003°18'0 0.0
2017-Mar-25 07:31N 58°58' W 003°18'0 0.0
2017-Mar-25 06:31N 58°58' W 003°18'0 0.0
2017-Mar-25 05:31N 58°58' W 003°18'0 0.0
2017-Mar-25 04:31N 58°58' W 003°18'0 0.0
2017-Mar-25 03:31N 58°58' W 003°18'0 0.0
2017-Mar-25 02:31N 58°58' W 003°18'0 0.0
2017-Mar-25 01:31N 58°58' W 003°18'0 0.0
2017-Mar-25 00:31N 58°58' W 003°18'0 0.0
2017-Mar-24 23:31N 58°58' W 003°18'0 0.0
2017-Mar-24 22:31N 58°58' W 003°18'0 0.0
2017-Mar-24 21:31N 58°58' W 003°18'0 0.0
2017-Mar-24 20:32N 58°58' W 003°18'1212.1
2017-Mar-24 19:33N 58°47' W 003°29'11 9.9
2017-Mar-24 18:27N 58°37' W 003°32'1213.0
2017-Mar-24 17:34N 58°48' W 003°30'1211.5
2017-Mar-24 16:33N 58°58' W 003°18'0 0.0
2017-Mar-24 15:32N 58°58' W 003°18'0 0.0
2017-Mar-24 14:32N 58°58' W 003°18'0 0.0
2017-Mar-24 13:32N 58°58' W 003°18'0 0.0
2017-Mar-24 12:32N 58°58' W 003°18'0 0.0
2017-Mar-24 11:32N 58°58' W 003°18'0 0.0
2017-Mar-24 10:33N 58°58' W 003°18'8 8.5
2017-Mar-24 09:33N 58°51' W 003°28'1514.7
2017-Mar-24 08:33N 58°37' W 003°32'8 7.8
2017-Mar-24 07:33N 58°44' W 003°30'1514.7
2017-Mar-24 06:33N 58°58' W 003°18'0 0.2
2017-Mar-24 05:29N 58°58' W 003°18'0 0.0
2017-Mar-24 04:29N 58°58' W 003°18'0 0.0
2017-Mar-24 03:29N 58°58' W 003°18'0 0.0
2017-Mar-24 02:32N 58°58' W 003°18'0 0.0
2017-Mar-24 01:32N 58°58' W 003°18'0 0.0
2017-Mar-24 00:29N 58°58' W 003°18'0 0.0
2017-Mar-23 23:32N 58°58' W 003°18'0 0.0
2017-Mar-23 22:29N 58°58' W 003°18'0 0.0
2017-Mar-23 21:29N 58°58' W 003°18'0 0.0
2017-Mar-23 20:33N 58°58' W 003°18'1110.6
2017-Mar-23 19:33N 58°49' W 003°28'1211.0
2017-Mar-23 18:27N 58°37' W 003°32'1112.7
2017-Mar-23 17:33N 58°48' W 003°29'1111.5
2017-Mar-23 16:33N 58°58' W 003°18'0 0.0
2017-Mar-23 15:32N 58°58' W 003°18'0 0.0
2017-Mar-23 14:32N 58°58' W 003°18'0 0.0
2017-Mar-23 13:29N 58°58' W 003°18'0 0.0
2017-Mar-23 12:29N 58°58' W 003°18'0 0.0
2017-Mar-23 11:29N 58°58' W 003°18'0 0.0
2017-Mar-23 10:29N 58°58' W 003°18'8 9.2
2017-Mar-23 09:33N 58°51' W 003°28'1514.7
2017-Mar-23 08:33N 58°37' W 003°32'7 6.7
2017-Mar-23 07:33N 58°43' W 003°30'1515.5
2017-Mar-23 06:34N 58°57' W 003°18'0 0.4
2017-Mar-23 05:32N 58°58' W 003°18'0 0.0
2017-Mar-23 04:32N 58°58' W 003°18'0 0.0
2017-Mar-23 03:32N 58°58' W 003°18'0 0.0
2017-Mar-23 02:32N 58°58' W 003°18'0 0.0
2017-Mar-23 01:32N 58°58' W 003°18'0 0.0
2017-Mar-23 00:32N 58°58' W 003°18'0 0.0
2017-Mar-22 23:32N 58°58' W 003°18'0 0.0
2017-Mar-22 22:32N 58°58' W 003°18'0 0.0
2017-Mar-22 21:32N 58°58' W 003°18'0 0.0
2017-Mar-22 20:33N 58°58' W 003°18'1110.8
2017-Mar-22 19:34N 58°49' W 003°28'1211.4
2017-Mar-22 18:30N 58°37' W 003°32'1011.0
2017-Mar-22 17:33N 58°47' W 003°29'1212.5
2017-Mar-22 16:33N 58°58' W 003°18'0 0.0
2017-Mar-22 15:30N 58°58' W 003°18'0 0.0
2017-Mar-22 14:30N 58°58' W 003°18'0 0.0
2017-Mar-22 13:30N 58°58' W 003°18'0 0.0
2017-Mar-22 12:30N 58°58' W 003°18'0 0.0
2017-Mar-22 11:30N 58°58' W 003°18'0 0.0
2017-Mar-22 10:30N 58°58' W 003°18'8 8.0
2017-Mar-22 09:33N 58°52' W 003°28'1615.8
2017-Mar-22 08:33N 58°37' W 003°32'5 5.4
2017-Mar-22 07:33N 58°42' W 003°30'1616.4
2017-Mar-22 06:33N 58°57' W 003°17'1 0.8
2017-Mar-22 05:31N 58°58' W 003°18'0 0.0
2017-Mar-22 04:31N 58°58' W 003°18'0 0.0
2017-Mar-22 03:31N 58°58' W 003°18'0 0.0
2017-Mar-22 02:31N 58°58' W 003°18'0 0.0
2017-Mar-22 01:31N 58°58' W 003°18'0 0.0
2017-Mar-22 00:31N 58°58' W 003°18'0 0.0
2017-Mar-21 23:31N 58°58' W 003°18'0 0.0
2017-Mar-21 22:31N 58°58' W 003°18'0 0.0
2017-Mar-21 21:31N 58°58' W 003°18'0 0.0
2017-Mar-21 20:33N 58°58' W 003°18'1111.2
2017-Mar-21 19:34N 58°48' W 003°29'12 8.7
2017-Mar-21 18:13N 58°37' W 003°32'1015.8
2017-Mar-21 17:33N 58°47' W 003°29'1212.5
2017-Mar-21 16:33N 58°58' W 003°18'0 0.0
2017-Mar-21 15:33N 58°58' W 003°18'0 0.0
2017-Mar-21 14:33N 58°58' W 003°18'0 0.0
2017-Mar-21 13:33N 58°58' W 003°18'0 0.0
2017-Mar-21 12:34N 58°58' W 003°18'0 0.0
2017-Mar-21 11:33N 58°58' W 003°18'0 0.0
2017-Mar-21 10:34N 58°58' W 003°18'8 7.8
2017-Mar-21 09:33N 58°52' W 003°28'1615.7
2017-Mar-21 08:33N 58°37' W 003°32'6 6.3
2017-Mar-21 07:33N 58°43' W 003°31'1615.5
2017-Mar-21 06:33N 58°57' W 003°17'1 0.9
2017-Mar-21 05:29N 58°58' W 003°18'0 0.0
2017-Mar-21 04:32N 58°58' W 003°18'0 0.0
2017-Mar-21 03:32N 58°58' W 003°18'0 0.0
2017-Mar-21 02:32N 58°58' W 003°18'0 0.0
2017-Mar-21 01:32N 58°58' W 003°18'0 0.0
2017-Mar-21 00:32N 58°58' W 003°18'0 0.0
2017-Mar-20 23:32N 58°58' W 003°18'0 0.0
2017-Mar-20 22:32N 58°58' W 003°18'0 0.0
2017-Mar-20 21:29N 58°58' W 003°18'2 2.7
2017-Mar-20 20:33N 58°56' W 003°15'1514.7
2017-Mar-20 19:33N 58°41' W 003°15'1010.3
2017-Mar-20 18:33N 58°37' W 003°32'1111.3
2017-Mar-20 17:33N 58°48' W 003°30'1211.8
2017-Mar-20 16:33N 58°58' W 003°18'0 0.0
2017-Mar-20 15:31N 58°58' W 003°18'0 0.0
2017-Mar-20 14:25N 58°58' W 003°18'0 0.0
2017-Mar-20 13:28N 58°58' W 003°18'0 0.0
2017-Mar-20 12:31N 58°58' W 003°18'0 0.0
2017-Mar-20 11:31N 58°58' W 003°18'0 0.0
2017-Mar-20 10:25N 58°58' W 003°18'7 7.9
2017-Mar-20 09:33N 58°53' W 003°27'1716.7
2017-Mar-20 08:33N 58°37' W 003°32'7 6.6
2017-Mar-20 07:33N 58°43' W 003°30'1515.5
2017-Mar-20 06:34N 58°57' W 003°17'1 0.7
2017-Mar-20 05:32N 58°58' W 003°18'0 0.0
2017-Mar-20 04:32N 58°58' W 003°18'0 0.0
2017-Mar-20 03:32N 58°58' W 003°18'0 0.0
2017-Mar-20 02:32N 58°58' W 003°18'0 0.0
2017-Mar-20 01:32N 58°58' W 003°18'0 0.0
2017-Mar-20 00:32N 58°58' W 003°18'0 0.0
2017-Mar-19 23:32N 58°58' W 003°18'0 0.0
2017-Mar-19 22:32N 58°58' W 003°18'0 0.0
2017-Mar-19 21:32N 58°58' W 003°18'2 2.4
2017-Mar-19 20:34N 58°56' W 003°15'1514.8
2017-Mar-19 19:33N 58°41' W 003°14'11 9.4
2017-Mar-19 18:25N 58°37' W 003°32'1113.3
2017-Mar-19 17:33N 58°48' W 003°29'1211.6
2017-Mar-19 16:33N 58°58' W 003°18'0 0.0
2017-Mar-19 15:22N 58°58' W 003°18'0 0.0
2017-Mar-19 14:22N 58°58' W 003°18'0 0.0
2017-Mar-19 13:28N 58°58' W 003°18'1111.7
2017-Mar-19 12:33N 58°49' W 003°28'1212.1
2017-Mar-19 11:34N 58°37' W 003°32'0 0.0
2017-Mar-19 10:34N 58°37' W 003°32'1514.8
2017-Mar-19 09:33N 58°51' W 003°28'8 8.1
2017-Mar-19 08:31N 58°58' W 003°18'0 0.0
2017-Mar-19 07:31N 58°58' W 003°18'0 0.0
2017-Mar-19 06:31N 58°58' W 003°18'0 0.0
2017-Mar-19 05:31N 58°58' W 003°18'0 0.0
2017-Mar-19 04:31N 58°58' W 003°18'0 0.0
2017-Mar-19 03:31N 58°58' W 003°18'0 0.0
2017-Mar-19 02:28N 58°58' W 003°18'0 0.0
2017-Mar-19 01:31N 58°58' W 003°18'0 0.0
2017-Mar-19 00:31N 58°58' W 003°18'0 0.0
2017-Mar-18 23:31N 58°58' W 003°18'0 0.0
2017-Mar-18 22:31N 58°58' W 003°18'0 0.0
2017-Mar-18 21:31N 58°58' W 003°18'0 0.0
2017-Mar-18 20:33N 58°58' W 003°18'1110.8
2017-Mar-18 19:34N 58°49' W 003°29'1212.1
2017-Mar-18 18:33N 58°37' W 003°32'1010.3
2017-Mar-18 17:33N 58°47' W 003°29'1312.5
2017-Mar-18 16:33N 58°58' W 003°18'0 0.0
2017-Mar-18 15:33N 58°58' W 003°18'0 0.0
2017-Mar-18 14:33N 58°58' W 003°18'0 0.0
2017-Mar-18 13:33N 58°58' W 003°18'1111.2
2017-Mar-18 12:33N 58°48' W 003°29'12 8.0
2017-Mar-18 11:06N 58°37' W 003°32'0 0.0
2017-Mar-18 10:33N 58°37' W 003°32'1615.8
2017-Mar-18 09:33N 58°52' W 003°28'8 7.6
2017-Mar-18 08:32N 58°58' W 003°18'0 0.0
2017-Mar-18 07:32N 58°58' W 003°18'0 0.0
2017-Mar-18 06:29N 58°58' W 003°18'0 0.0
2017-Mar-18 05:29N 58°58' W 003°18'0 0.0
2017-Mar-18 04:32N 58°58' W 003°18'0 0.0
2017-Mar-18 03:32N 58°58' W 003°18'0 0.0
2017-Mar-18 02:32N 58°58' W 003°18'0 0.0
2017-Mar-18 01:32N 58°58' W 003°18'0 0.0
2017-Mar-18 00:32N 58°58' W 003°18'0 0.0
2017-Mar-17 23:32N 58°58' W 003°18'0 0.0
2017-Mar-17 22:32N 58°58' W 003°18'0 0.0
2017-Mar-17 21:32N 58°58' W 003°18'1 1.0
2017-Mar-17 20:34N 58°57' W 003°17'1615.5
2017-Mar-17 19:34N 58°42' W 003°12'12 9.7
2017-Mar-17 18:20N 58°37' W 003°32'1113.5
2017-Mar-17 17:33N 58°47' W 003°30'1212.4
2017-Mar-17 16:34N 58°58' W 003°18'0 0.0
2017-Mar-17 15:32N 58°58' W 003°18'0 0.0
2017-Mar-17 14:32N 58°58' W 003°18'0 0.0
2017-Mar-17 13:32N 58°58' W 003°18'0 0.0
2017-Mar-17 11:20N 58°58' W 003°18'0 0.0
2017-Mar-17 10:33N 58°58' W 003°18'1212.0
2017-Mar-17 09:33N 58°47' W 003°10'1514.8
2017-Mar-17 08:31N 58°37' W 003°32'8 8.6
2017-Mar-17 07:34N 58°45' W 003°36'1515.1
2017-Mar-17 06:33N 58°57' W 003°19'1 1.1
2017-Mar-17 05:32N 58°58' W 003°18'0 0.0
2017-Mar-17 04:32N 58°58' W 003°18'0 0.0
2017-Mar-17 03:32N 58°58' W 003°18'0 0.0
2017-Mar-17 02:32N 58°58' W 003°18'0 0.0
2017-Mar-17 01:32N 58°58' W 003°18'0 0.0
2017-Mar-17 00:32N 58°58' W 003°18'0 0.0
2017-Mar-16 23:32N 58°58' W 003°18'0 0.0
2017-Mar-16 22:32N 58°58' W 003°18'0 0.0
2017-Mar-16 21:29N 58°58' W 003°18'6 6.2
2017-Mar-16 20:33N 58°53' W 003°12'1313.1
2017-Mar-16 19:34N 58°41' W 003°21'7 7.1
2017-Mar-16 18:33N 58°37' W 003°32'1313.2
2017-Mar-16 17:33N 58°50' W 003°35'1211.9
2017-Mar-16 16:33N 58°58' W 003°18'0 0.0
2017-Mar-16 15:31N 58°58' W 003°18'0 0.0
2017-Mar-16 14:31N 58°58' W 003°18'0 0.0
2017-Mar-16 13:28N 58°58' W 003°18'  
Track history (hours):
 
Tides and Currents Weather Stations Pressure Air Temp Water Temp Dewpoint Dewpoint Depression Visibility Wind Speed Wind Dir Waves Ship Positions

Hamnavoe

Operator: NorthLink Orkey & Shetland Ferries Ltd

Last reported at 2017-Mar-26 12:34 UTC. Time now 2017-Mar-26 13:10 UTC.
Position N 58°58' W 003°18'.

Length 112 m; draft 4.2 m.

Type: Ship. MMSI: 235449000.

Date/timePositionNaut miles runAvg speedWind from/ knotsBaromVisibWave heightAir tempDewpointWater temp
2017-Mar-26 12:34N 58°58' W 003°18'1010.5
2017-Mar-26 11:34N 58°49' W 003°29'1312.5
2017-Mar-26 10:33N 58°37' W 003°32'0 0.0
2017-Mar-26 09:33N 58°37' W 003°32'1515.1
2017-Mar-26 08:33N 58°52' W 003°28'8 7.9
2017-Mar-26 07:31N 58°58' W 003°18'0 0.0
2017-Mar-26 06:31N 58°58' W 003°18'0 0.0
2017-Mar-26 05:31N 58°58' W 003°18'0 0.0
2017-Mar-26 04:31N 58°58' W 003°18'0 0.0
2017-Mar-26 03:31N 58°58' W 003°18'0 0.0
2017-Mar-26 02:31N 58°58' W 003°18'0 0.0
2017-Mar-26 01:25N 58°58' W 003°18'0 0.0
2017-Mar-26 00:25N 58°58' W 003°18'0 0.0
2017-Mar-25 23:31N 58°58' W 003°18'0 0.0
2017-Mar-25 22:31N 58°58' W 003°18'0 0.0
2017-Mar-25 21:31N 58°58' W 003°18'0 0.0
2017-Mar-25 20:33N 58°58' W 003°18'1110.9
2017-Mar-25 19:33N 58°49' W 003°29'1211.9
2017-Mar-25 18:33N 58°37' W 003°32'1110.7
2017-Mar-25 17:33N 58°47' W 003°29'1212.2
2017-Mar-25 16:33N 58°58' W 003°18'0 0.0
2017-Mar-25 15:29N 58°58' W 003°18'0 0.0
2017-Mar-25 14:29N 58°58' W 003°18'0 0.0
2017-Mar-25 13:33N 58°58' W 003°18'1111.5
2017-Mar-25 12:33N 58°48' W 003°29'12 9.5
2017-Mar-25 11:20N 58°37' W 003°32'0 0.0
2017-Mar-25 10:33N 58°37' W 003°32'1615.8
2017-Mar-25 09:33N 58°52' W 003°28'8 7.5
2017-Mar-25 08:31N 58°58' W 003°18'0 0.0
2017-Mar-25 07:31N 58°58' W 003°18'0 0.0
2017-Mar-25 06:31N 58°58' W 003°18'0 0.0
2017-Mar-25 05:31N 58°58' W 003°18'0 0.0
2017-Mar-25 04:31N 58°58' W 003°18'0 0.0
2017-Mar-25 03:31N 58°58' W 003°18'0 0.0
2017-Mar-25 02:31N 58°58' W 003°18'0 0.0
2017-Mar-25 01:31N 58°58' W 003°18'0 0.0
2017-Mar-25 00:31N 58°58' W 003°18'0 0.0
2017-Mar-24 23:31N 58°58' W 003°18'0 0.0
2017-Mar-24 22:31N 58°58' W 003°18'0 0.0
2017-Mar-24 21:31N 58°58' W 003°18'0 0.0
2017-Mar-24 20:32N 58°58' W 003°18'1212.1
2017-Mar-24 19:33N 58°47' W 003°29'11 9.9
2017-Mar-24 18:27N 58°37' W 003°32'1213.0
2017-Mar-24 17:34N 58°48' W 003°30'1211.5
2017-Mar-24 16:33N 58°58' W 003°18'0 0.0
2017-Mar-24 15:32N 58°58' W 003°18'0 0.0
2017-Mar-24 14:32N 58°58' W 003°18'0 0.0
2017-Mar-24 13:32N 58°58' W 003°18'0 0.0
2017-Mar-24 12:32N 58°58' W 003°18'0 0.0
2017-Mar-24 11:32N 58°58' W 003°18'0 0.0
2017-Mar-24 10:33N 58°58' W 003°18'8 8.5
2017-Mar-24 09:33N 58°51' W 003°28'1514.7
2017-Mar-24 08:33N 58°37' W 003°32'8 7.8
2017-Mar-24 07:33N 58°44' W 003°30'1514.7
2017-Mar-24 06:33N 58°58' W 003°18'0 0.2
2017-Mar-24 05:29N 58°58' W 003°18'0 0.0
2017-Mar-24 04:29N 58°58' W 003°18'0 0.0
2017-Mar-24 03:29N 58°58' W 003°18'0 0.0
2017-Mar-24 02:32N 58°58' W 003°18'0 0.0
2017-Mar-24 01:32N 58°58' W 003°18'0 0.0
2017-Mar-24 00:29N 58°58' W 003°18'0 0.0
2017-Mar-23 23:32N 58°58' W 003°18'0 0.0
2017-Mar-23 22:29N 58°58' W 003°18'0 0.0
2017-Mar-23 21:29N 58°58' W 003°18'0 0.0
2017-Mar-23 20:33N 58°58' W 003°18'1110.6
2017-Mar-23 19:33N 58°49' W 003°28'1211.0
2017-Mar-23 18:27N 58°37' W 003°32'1112.7
2017-Mar-23 17:33N 58°48' W 003°29'1111.5
2017-Mar-23 16:33N 58°58' W 003°18'0 0.0
2017-Mar-23 15:32N 58°58' W 003°18'0 0.0
2017-Mar-23 14:32N 58°58' W 003°18'0 0.0
2017-Mar-23 13:29N 58°58' W 003°18'0 0.0
2017-Mar-23 12:29N 58°58' W 003°18'0 0.0
2017-Mar-23 11:29N 58°58' W 003°18'0 0.0
2017-Mar-23 10:29N 58°58' W 003°18'8 9.2
2017-Mar-23 09:33N 58°51' W 003°28'1514.7
2017-Mar-23 08:33N 58°37' W 003°32'7 6.7
2017-Mar-23 07:33N 58°43' W 003°30'1515.5
2017-Mar-23 06:34N 58°57' W 003°18'0 0.4
2017-Mar-23 05:32N 58°58' W 003°18'0 0.0
2017-Mar-23 04:32N 58°58' W 003°18'0 0.0
2017-Mar-23 03:32N 58°58' W 003°18'0 0.0
2017-Mar-23 02:32N 58°58' W 003°18'0 0.0
2017-Mar-23 01:32N 58°58' W 003°18'0 0.0
2017-Mar-23 00:32N 58°58' W 003°18'0 0.0
2017-Mar-22 23:32N 58°58' W 003°18'0 0.0
2017-Mar-22 22:32N 58°58' W 003°18'0 0.0
2017-Mar-22 21:32N 58°58' W 003°18'0 0.0
2017-Mar-22 20:33N 58°58' W 003°18'1110.8
2017-Mar-22 19:34N 58°49' W 003°28'1211.4
2017-Mar-22 18:30N 58°37' W 003°32'1011.0
2017-Mar-22 17:33N 58°47' W 003°29'1212.5
2017-Mar-22 16:33N 58°58' W 003°18'0 0.0
2017-Mar-22 15:30N 58°58' W 003°18'0 0.0
2017-Mar-22 14:30N 58°58' W 003°18'0 0.0
2017-Mar-22 13:30N 58°58' W 003°18'0 0.0
2017-Mar-22 12:30N 58°58' W 003°18'0 0.0
2017-Mar-22 11:30N 58°58' W 003°18'0 0.0
2017-Mar-22 10:30N 58°58' W 003°18'8 8.0
2017-Mar-22 09:33N 58°52' W 003°28'1615.8
2017-Mar-22 08:33N 58°37' W 003°32'5 5.4
2017-Mar-22 07:33N 58°42' W 003°30'1616.4
2017-Mar-22 06:33N 58°57' W 003°17'1 0.8
2017-Mar-22 05:31N 58°58' W 003°18'0 0.0
2017-Mar-22 04:31N 58°58' W 003°18'0 0.0
2017-Mar-22 03:31N 58°58' W 003°18'0 0.0
2017-Mar-22 02:31N 58°58' W 003°18'0 0.0
2017-Mar-22 01:31N 58°58' W 003°18'0 0.0
2017-Mar-22 00:31N 58°58' W 003°18'0 0.0
2017-Mar-21 23:31N 58°58' W 003°18'0 0.0
2017-Mar-21 22:31N 58°58' W 003°18'0 0.0
2017-Mar-21 21:31N 58°58' W 003°18'0 0.0
2017-Mar-21 20:33N 58°58' W 003°18'1111.2
2017-Mar-21 19:34N 58°48' W 003°29'12 8.7
2017-Mar-21 18:13N 58°37' W 003°32'1015.8
2017-Mar-21 17:33N 58°47' W 003°29'1212.5
2017-Mar-21 16:33N 58°58' W 003°18'0 0.0
2017-Mar-21 15:33N 58°58' W 003°18'0 0.0
2017-Mar-21 14:33N 58°58' W 003°18'0 0.0
2017-Mar-21 13:33N 58°58' W 003°18'0 0.0
2017-Mar-21 12:34N 58°58' W 003°18'0 0.0
2017-Mar-21 11:33N 58°58' W 003°18'0 0.0
2017-Mar-21 10:34N 58°58' W 003°18'8 7.8
2017-Mar-21 09:33N 58°52' W 003°28'1615.7
2017-Mar-21 08:33N 58°37' W 003°32'6 6.3
2017-Mar-21 07:33N 58°43' W 003°31'1615.5
2017-Mar-21 06:33N 58°57' W 003°17'1 0.9
2017-Mar-21 05:29N 58°58' W 003°18'0 0.0
2017-Mar-21 04:32N 58°58' W 003°18'0 0.0
2017-Mar-21 03:32N 58°58' W 003°18'0 0.0
2017-Mar-21 02:32N 58°58' W 003°18'0 0.0
2017-Mar-21 01:32N 58°58' W 003°18'0 0.0
2017-Mar-21 00:32N 58°58' W 003°18'0 0.0
2017-Mar-20 23:32N 58°58' W 003°18'0 0.0
2017-Mar-20 22:32N 58°58' W 003°18'0 0.0
2017-Mar-20 21:29N 58°58' W 003°18'2 2.7
2017-Mar-20 20:33N 58°56' W 003°15'1514.7
2017-Mar-20 19:33N 58°41' W 003°15'1010.3
2017-Mar-20 18:33N 58°37' W 003°32'1111.3
2017-Mar-20 17:33N 58°48' W 003°30'1211.8
2017-Mar-20 16:33N 58°58' W 003°18'0 0.0
2017-Mar-20 15:31N 58°58' W 003°18'0 0.0
2017-Mar-20 14:25N 58°58' W 003°18'0 0.0
2017-Mar-20 13:28N 58°58' W 003°18'0 0.0
2017-Mar-20 12:31N 58°58' W 003°18'0 0.0
2017-Mar-20 11:31N 58°58' W 003°18'0 0.0
2017-Mar-20 10:25N 58°58' W 003°18'7 7.9
2017-Mar-20 09:33N 58°53' W 003°27'1716.7
2017-Mar-20 08:33N 58°37' W 003°32'7 6.6
2017-Mar-20 07:33N 58°43' W 003°30'1515.5
2017-Mar-20 06:34N 58°57' W 003°17'1 0.7
2017-Mar-20 05:32N 58°58' W 003°18'0 0.0
2017-Mar-20 04:32N 58°58' W 003°18'0 0.0
2017-Mar-20 03:32N 58°58' W 003°18'0 0.0
2017-Mar-20 02:32N 58°58' W 003°18'0 0.0
2017-Mar-20 01:32N 58°58' W 003°18'0 0.0
2017-Mar-20 00:32N 58°58' W 003°18'0 0.0
2017-Mar-19 23:32N 58°58' W 003°18'0 0.0
2017-Mar-19 22:32N 58°58' W 003°18'0 0.0
2017-Mar-19 21:32N 58°58' W 003°18'2 2.4
2017-Mar-19 20:34N 58°56' W 003°15'1514.8
2017-Mar-19 19:33N 58°41' W 003°14'11 9.4
2017-Mar-19 18:25N 58°37' W 003°32'1113.3
2017-Mar-19 17:33N 58°48' W 003°29'1211.6
2017-Mar-19 16:33N 58°58' W 003°18'0 0.0
2017-Mar-19 15:22N 58°58' W 003°18'0 0.0
2017-Mar-19 14:22N 58°58' W 003°18'0 0.0
2017-Mar-19 13:28N 58°58' W 003°18'1111.7
2017-Mar-19 12:33N 58°49' W 003°28'1212.1
2017-Mar-19 11:34N 58°37' W 003°32'0 0.0
2017-Mar-19 10:34N 58°37' W 003°32'1514.8
2017-Mar-19 09:33N 58°51' W 003°28'8 8.1
2017-Mar-19 08:31N 58°58' W 003°18'0 0.0
2017-Mar-19 07:31N 58°58' W 003°18'0 0.0
2017-Mar-19 06:31N 58°58' W 003°18'0 0.0
2017-Mar-19 05:31N 58°58' W 003°18'0 0.0
2017-Mar-19 04:31N 58°58' W 003°18'0 0.0
2017-Mar-19 03:31N 58°58' W 003°18'0 0.0
2017-Mar-19 02:28N 58°58' W 003°18'0 0.0
2017-Mar-19 01:31N 58°58' W 003°18'0 0.0
2017-Mar-19 00:31N 58°58' W 003°18'0 0.0
2017-Mar-18 23:31N 58°58' W 003°18'0 0.0
2017-Mar-18 22:31N 58°58' W 003°18'0 0.0
2017-Mar-18 21:31N 58°58' W 003°18'0 0.0
2017-Mar-18 20:33N 58°58' W 003°18'1110.8
2017-Mar-18 19:34N 58°49' W 003°29'1212.1
2017-Mar-18 18:33N 58°37' W 003°32'1010.3
2017-Mar-18 17:33N 58°47' W 003°29'1312.5
2017-Mar-18 16:33N 58°58' W 003°18'0 0.0
2017-Mar-18 15:33N 58°58' W 003°18'0 0.0
2017-Mar-18 14:33N 58°58' W 003°18'0 0.0
2017-Mar-18 13:33N 58°58' W 003°18'1111.2
2017-Mar-18 12:33N 58°48' W 003°29'12 8.0
2017-Mar-18 11:06N 58°37' W 003°32'0 0.0
2017-Mar-18 10:33N 58°37' W 003°32'1615.8
2017-Mar-18 09:33N 58°52' W 003°28'8 7.6
2017-Mar-18 08:32N 58°58' W 003°18'0 0.0
2017-Mar-18 07:32N 58°58' W 003°18'0 0.0
2017-Mar-18 06:29N 58°58' W 003°18'0 0.0
2017-Mar-18 05:29N 58°58' W 003°18'0 0.0
2017-Mar-18 04:32N 58°58' W 003°18'0 0.0
2017-Mar-18 03:32N 58°58' W 003°18'0 0.0
2017-Mar-18 02:32N 58°58' W 003°18'0 0.0
2017-Mar-18 01:32N 58°58' W 003°18'0 0.0
2017-Mar-18 00:32N 58°58' W 003°18'0 0.0
2017-Mar-17 23:32N 58°58' W 003°18'0 0.0
2017-Mar-17 22:32N 58°58' W 003°18'0 0.0
2017-Mar-17 21:32N 58°58' W 003°18'1 1.0
2017-Mar-17 20:34N 58°57' W 003°17'1615.5
2017-Mar-17 19:34N 58°42' W 003°12'12 9.7
2017-Mar-17 18:20N 58°37' W 003°32'1113.5
2017-Mar-17 17:33N 58°47' W 003°30'1212.4
2017-Mar-17 16:34N 58°58' W 003°18'0 0.0
2017-Mar-17 15:32N 58°58' W 003°18'0 0.0
2017-Mar-17 14:32N 58°58' W 003°18'0 0.0
2017-Mar-17 13:32N 58°58' W 003°18'0 0.0
2017-Mar-17 11:20N 58°58' W 003°18'0 0.0
2017-Mar-17 10:33N 58°58' W 003°18'1212.0
2017-Mar-17 09:33N 58°47' W 003°10'1514.8
2017-Mar-17 08:31N 58°37' W 003°32'8 8.6
2017-Mar-17 07:34N 58°45' W 003°36'1515.1
2017-Mar-17 06:33N 58°57' W 003°19'1 1.1
2017-Mar-17 05:32N 58°58' W 003°18'0 0.0
2017-Mar-17 04:32N 58°58' W 003°18'0 0.0
2017-Mar-17 03:32N 58°58' W 003°18'0 0.0
2017-Mar-17 02:32N 58°58' W 003°18'0 0.0
2017-Mar-17 01:32N 58°58' W 003°18'0 0.0
2017-Mar-17 00:32N 58°58' W 003°18'0 0.0
2017-Mar-16 23:32N 58°58' W 003°18'0 0.0
2017-Mar-16 22:32N 58°58' W 003°18'0 0.0
2017-Mar-16 21:29N 58°58' W 003°18'6 6.2
2017-Mar-16 20:33N 58°53' W 003°12'1313.1
2017-Mar-16 19:34N 58°41' W 003°21'7 7.1
2017-Mar-16 18:33N 58°37' W 003°32'1313.2
2017-Mar-16 17:33N 58°50' W 003°35'1211.9
2017-Mar-16 16:33N 58°58' W 003°18'0 0.0
2017-Mar-16 15:31N 58°58' W 003°18'0 0.0
2017-Mar-16 14:31N 58°58' W 003°18'0 0.0
2017-Mar-16 13:28N 58°58' W 003°18'  

Dump ship's entire track history